Time;durP1;ratioP1;P1;durP2;ratioP2;P2;SDS_P1;SDS_P2;PMS_P1;PMS_P2;Temp;Humidity;BMP_temperature;BMP_pressure;BME280_temperature;BME280_humidity;BME280_pressure;Samples;Min_cycle;Max_cycle;Signal;HPM_P1;HPM_P2
2021/12/20 00:02:06;;;;;;;14.85;10.70;;;;;;;2.74;87.01;98562.69;4973540;28;20090;-61
2021/12/20 00:04:32;;;;;;;15.50;10.27;;;;;;;2.98;86.04;98577.47;4957326;28;20169;-62
2021/12/20 00:06:57;;;;;;;13.05;10.00;;;;;;;2.81;86.53;98552.84;4956614;28;21049;-63
2021/12/20 00:09:22;;;;;;;15.88;10.23;;;;;;;3.06;87.66;98588.88;4959848;28;20523;-61
2021/12/20 00:11:48;;;;;;;16.27;10.82;;;;;;;2.95;85.59;98559.69;4952954;28;20042;-62
2021/12/20 00:14:13;;;;;;;14.35;10.38;;;;;;;3.11;86.11;98586.03;4957905;28;20031;-63
2021/12/20 00:16:39;;;;;;;14.50;9.65;;;;;;;2.65;86.16;98533.28;4954150;28;20027;-61
2021/12/20 00:19:08;;;;;;;13.02;9.93;;;;;;;2.87;88.36;98588.44;4955316;28;20089;-62
2021/12/20 00:21:34;;;;;;;;;;;;;;;2.82;86.76;98572.47;4981681;28;20033;-62
2021/12/20 00:23:59;;;;;;;14.55;9.38;;;;;;;2.89;88.20;98571.97;4963356;28;19913;-62
2021/12/20 00:26:25;;;;;;;13.82;9.82;;;;;;;2.91;88.75;98565.94;4957274;28;20045;-61
2021/12/20 00:28:50;;;;;;;15.15;10.32;;;;;;;2.92;88.80;98567.56;4970752;28;20126;-62
2021/12/20 00:31:15;;;;;;;16.85;9.85;;;;;;;2.93;89.11;98576.94;4961785;28;20118;-63
2021/12/20 00:33:41;;;;;;;15.32;10.20;;;;;;;2.90;88.97;98565.09;4956110;28;20121;-63
2021/12/20 00:36:07;;;;;;;13.82;9.68;;;;;;;2.72;88.41;98532.88;4940739;28;20183;-62
2021/12/20 00:41:18;;;;;;;12.63;9.13;;;;;;;3.04;85.71;98569.38;4958954;28;20050;-61
2021/12/20 00:43:45;;;;;;;13.25;9.10;;;;;;;3.19;84.99;98562.41;4960918;28;20038;-61
2021/12/20 00:46:11;;;;;;;14.32;9.60;;;;;;;3.15;84.45;98553.25;4954459;28;20046;-63
2021/12/20 00:48:37;;;;;;;13.27;9.05;;;;;;;3.24;84.68;98558.63;4961328;28;20026;-62
2021/12/20 00:51:02;;;;;;;14.93;8.98;;;;;;;3.16;84.50;98539.47;4984441;28;20043;-60
2021/12/20 00:53:28;;;;;;;14.45;9.55;;;;;;;3.18;84.16;98543.59;4952478;28;20500;-62
2021/12/20 00:55:53;;;;;;;13.48;8.82;;;;;;;3.22;83.79;98534.78;4938852;28;20093;-60
2021/12/20 00:58:19;;;;;;;13.63;9.13;;;;;;;3.14;84.05;98534.47;4953920;28;20035;-62
2021/12/20 01:00:51;;;;;;;13.70;9.48;;;;;;;3.11;83.70;98539.78;4963324;28;20042;-61
2021/12/20 01:03:18;;;;;;;15.07;10.45;;;;;;;2.91;84.18;98474.28;4957316;28;20135;-62
2021/12/20 01:05:44;;;;;;;14.75;8.80;;;;;;;3.00;83.61;98475.44;4975649;28;20162;-62
2021/12/20 01:08:10;;;;;;;13.35;9.60;;;;;;;3.41;83.23;98541.28;4960648;28;20058;-63
2021/12/20 01:10:40;;;;;;;12.25;8.85;;;;;;;3.50;83.08;98520.09;4974599;28;20133;-62
2021/12/20 01:13:06;;;;;;;15.20;9.60;;;;;;;3.49;83.48;98520.19;4958748;28;20029;-61
2021/12/20 01:15:35;;;;;;;14.60;9.38;;;;;;;3.59;83.43;98516.91;4962410;28;20583;-62
2021/12/20 01:18:02;;;;;;;14.27;10.48;;;;;;;3.23;84.44;98468.78;4977583;28;20030;-61
2021/12/20 01:20:28;;;;;;;14.20;9.10;;;;;;;3.28;84.72;98512.97;4958909;28;20105;-61
2021/12/20 01:22:53;;;;;;;14.52;9.75;;;;;;;2.85;84.72;98464.44;4980118;28;20050;-63
2021/12/20 01:25:20;;;;;;;14.50;9.65;;;;;;;2.80;87.16;98463.91;4952056;28;20035;-61
2021/12/20 01:27:45;;;;;;;13.40;9.98;;;;;;;2.96;87.65;98503.06;4958407;28;20315;-64
2021/12/20 01:30:13;;;;;;;13.68;9.43;;;;;;;3.07;87.32;98521.19;4977367;28;20455;-62
2021/12/20 01:32:40;;;;;;;13.60;9.27;;;;;;;2.86;87.41;98517.41;4959339;28;20102;-62
2021/12/20 01:35:06;;;;;;;16.30;10.45;;;;;;;2.96;86.94;98523.63;4963629;28;20115;-62
2021/12/20 01:37:32;;;;;;;14.30;9.50;;;;;;;2.94;86.16;98522.06;4976923;28;20031;-62
2021/12/20 01:39:59;;;;;;;13.98;9.45;;;;;;;2.72;85.93;98518.31;4979239;28;20545;-60
2021/12/20 01:42:26;;;;;;;14.00;9.95;;;;;;;2.86;88.85;98509.72;4959932;28;20027;-62
2021/12/20 01:44:55;;;;;;;14.18;9.57;;;;;;;2.87;87.93;98504.47;4973817;28;20042;-62
2021/12/20 01:47:21;;;;;;;;;;;;;;;2.91;86.67;98507.69;4958831;28;20081;-62
2021/12/20 01:50:24;;;;;;;12.60;8.70;;;;;;;2.82;86.53;98506.53;4947040;28;19918;-63
2021/12/20 01:52:43;;;;;;;13.98;9.02;;;;;;;2.73;86.36;98498.59;4961752;28;20505;-62
2021/12/20 01:55:12;;;;;;;13.63;9.20;;;;;;;2.72;87.60;98489.22;4956126;28;20035;-61
2021/12/20 01:57:38;;;;;;;15.57;10.10;;;;;;;2.53;88.65;98456.22;4963358;28;20658;-61
2021/12/20 02:00:10;;;;;;;13.63;9.68;;;;;;;2.40;87.76;98440.78;4964019;28;20328;-62
2021/12/20 02:02:35;;;;;;;13.98;9.88;;;;;;;2.79;89.18;98472.50;4941769;28;20449;-63
2021/12/20 02:05:12;;;;;;;12.95;9.93;;;;;;;2.64;89.41;98440.94;4961227;28;20034;-61
2021/12/20 02:07:50;;;;;;;12.38;9.00;;;;;;;2.64;88.33;98430.69;4960140;28;20037;-61
2021/12/20 02:10:17;;;;;;;12.85;9.23;;;;;;;2.75;90.05;98466.75;4959249;28;20035;-62
2021/12/20 02:12:43;;;;;;;13.57;9.88;;;;;;;2.45;89.36;98420.78;4977065;28;20031;-61
2021/12/20 02:15:08;;;;;;;13.95;9.55;;;;;;;2.70;89.38;98455.94;4959761;28;20641;-64
2021/12/20 02:17:34;;;;;;;15.27;9.70;;;;;;;2.75;90.12;98453.91;4978313;28;20030;-61
2021/12/20 02:20:00;;;;;;;12.90;9.40;;;;;;;2.77;90.39;98446.13;4957580;28;20039;-61
2021/12/20 02:22:26;;;;;;;12.93;9.43;;;;;;;2.76;90.21;98441.91;4975588;28;20039;-62
2021/12/20 02:24:51;;;;;;;13.15;9.40;;;;;;;2.80;88.29;98448.50;4953599;28;20382;-61
2021/12/20 02:27:17;;;;;;;14.35;9.70;;;;;;;2.62;88.34;98440.22;4954856;28;20756;-63
2021/12/20 02:29:58;;;;;;;12.68;8.95;;;;;;;2.44;89.08;98430.19;4975767;28;20077;-62
2021/12/20 02:37:53;;;;;;;10.95;7.30;;;;;;;2.56;86.04;98438.88;4960441;28;20575;-62
2021/12/20 02:40:20;;;;;;;11.98;7.80;;;;;;;2.52;86.24;98413.50;4960199;28;20114;-62
2021/12/20 02:42:47;;;;;;;11.55;7.53;;;;;;;2.48;85.68;98379.50;4956237;28;20437;-61
2021/12/20 02:45:15;;;;;;;11.43;7.47;;;;;;;2.25;86.16;98368.97;4960657;28;20050;-63
2021/12/20 02:47:47;;;;;;;10.20;7.40;;;;;;;2.51;86.17;98420.38;4962262;28;20031;-61
2021/12/20 02:50:13;;;;;;;10.55;6.78;;;;;;;2.55;86.71;98403.03;4945236;28;20105;-61
2021/12/20 02:52:40;;;;;;;10.75;6.80;;;;;;;2.92;85.76;98408.31;4959615;28;20026;-63
2021/12/20 02:55:07;;;;;;;11.25;7.50;;;;;;;2.88;85.43;98398.28;4988825;28;20026;-61
2021/12/20 02:57:35;;;;;;;11.93;7.95;;;;;;;2.79;85.09;98393.75;4970955;28;20488;-62
2021/12/20 03:00:00;;;;;;;10.55;6.05;;;;;;;2.74;85.79;98382.94;4949664;28;20026;-63
2021/12/20 03:02:26;;;;;;;10.57;6.72;;;;;;;2.79;86.00;98390.34;4973712;28;20484;-61
2021/12/20 03:04:51;;;;;;;9.43;6.55;;;;;;;2.93;84.81;98399.72;4957564;28;20462;-63
2021/12/20 03:07:22;;;;;;;10.63;6.30;;;;;;;3.04;84.22;98390.34;4953594;28;20030;-62
2021/12/20 03:09:53;;;;;;;9.93;6.13;;;;;;;3.02;82.87;98370.84;4973565;28;20097;-61
2021/12/20 03:12:18;;;;;;;11.77;6.70;;;;;;;2.87;83.59;98334.16;4958097;28;20035;-62
2021/12/20 03:14:47;;;;;;;13.00;7.43;;;;;;;3.07;83.02;98386.78;4976101;28;20034;-62
2021/12/20 03:17:13;;;;;;;12.05;7.55;;;;;;;3.10;83.27;98385.72;4952150;28;20484;-62
2021/12/20 03:19:38;;;;;;;16.17;10.30;;;;;;;2.97;82.23;98383.97;4970349;28;20030;-64
2021/12/20 03:22:06;;;;;;;19.10;10.82;;;;;;;2.72;83.28;98374.53;4955710;28;20466;-63
2021/12/20 03:24:32;;;;;;;15.50;9.93;;;;;;;2.43;84.61;98379.00;4949698;28;20478;-63
2021/12/20 03:26:57;;;;;;;12.48;8.38;;;;;;;2.67;84.37;98387.66;4965186;28;20350;-63
2021/12/20 03:29:23;;;;;;;12.13;6.60;;;;;;;2.94;83.39;98384.22;4959681;28;20039;-62
2021/12/20 03:31:49;;;;;;;9.90;6.40;;;;;;;3.04;82.76;98367.22;4952296;28;20081;-63
2021/12/20 03:34:15;;;;;;;9.35;5.53;;;;;;;3.14;82.55;98375.16;4956262;28;20070;-61
2021/12/20 03:36:40;;;;;;;9.13;6.05;;;;;;;3.35;81.46;98369.47;4960971;28;20035;-62
2021/12/20 03:39:07;;;;;;;12.32;5.80;;;;;;;3.42;81.95;98373.28;4955426;28;20034;-62
2021/12/20 03:41:34;;;;;;;8.73;5.18;;;;;;;3.36;80.80;98360.84;4942667;28;20042;-62
2021/12/20 03:43:59;;;;;;;10.30;5.63;;;;;;;3.34;81.99;98352.41;4975158;28;20034;-62
2021/12/20 03:46:25;;;;;;;10.00;5.78;;;;;;;3.58;82.29;98355.88;4958393;28;20030;-64
2021/12/20 03:48:50;;;;;;;9.45;5.85;;;;;;;3.64;81.82;98363.16;4958440;28;20027;-62
2021/12/20 03:51:16;;;;;;;11.38;5.93;;;;;;;3.66;83.66;98368.19;4974214;28;20512;-63
2021/12/20 03:53:41;;;;;;;9.63;5.40;;;;;;;3.65;83.10;98375.09;4960342;28;20650;-62
2021/12/20 03:56:07;;;;;;;8.38;5.18;;;;;;;3.68;81.28;98376.63;4959632;28;20027;-64
2021/12/20 03:58:33;;;;;;;8.98;5.03;;;;;;;3.59;80.78;98357.50;4975093;28;20458;-61
2021/12/20 04:01:01;;;;;;;7.57;4.55;;;;;;;3.42;80.10;98361.25;4957838;28;20552;-62
2021/12/20 04:03:29;;;;;;;7.65;4.82;;;;;;;3.50;79.96;98347.84;4937818;28;20520;-64
2021/12/20 04:05:55;;;;;;;8.27;4.63;;;;;;;3.38;80.41;98354.69;4956721;28;20026;-62
2021/12/20 04:08:21;;;;;;;8.82;5.03;;;;;;;3.42;81.02;98350.97;4941091;28;20022;-59
2021/12/20 04:10:46;;;;;;;7.53;4.68;;;;;;;3.49;81.05;98351.38;4957807;28;20070;-61
2021/12/20 04:13:12;;;;;;;8.27;4.97;;;;;;;3.47;81.13;98332.66;4958488;28;20756;-64
2021/12/20 04:15:37;;;;;;;8.10;4.60;;;;;;;3.52;81.30;98342.59;4975871;28;20016;-59
2021/12/20 04:18:04;;;;;;;8.05;4.80;;;;;;;3.39;80.51;98319.50;4990181;28;20054;-62
2021/12/20 04:20:30;;;;;;;8.30;4.75;;;;;;;3.47;80.96;98324.94;4976381;28;20082;-62
2021/12/20 04:22:55;;;;;;;8.02;4.78;;;;;;;3.46;81.44;98331.00;4958349;28;20311;-61
2021/12/20 04:25:20;;;;;;;7.38;4.40;;;;;;;3.52;80.55;98332.31;4963935;28;20038;-60
2021/12/20 04:27:46;;;;;;;8.95;5.03;;;;;;;3.42;81.05;98327.81;4955878;28;20167;-62
2021/12/20 04:30:12;;;;;;;7.82;4.40;;;;;;;3.32;80.96;98316.53;4940533;28;20434;-64
2021/12/20 04:32:43;;;;;;;7.88;4.53;;;;;;;3.37;81.10;98332.47;4960995;28;20766;-63
2021/12/20 04:35:09;;;;;;;9.20;4.93;;;;;;;3.23;81.61;98325.72;4951860;28;20076;-64
2021/12/20 04:37:35;;;;;;;7.82;4.70;;;;;;;3.11;81.68;98318.03;4955981;28;20092;-60
2021/12/20 04:40:06;;;;;;;8.32;4.63;;;;;;;3.10;82.03;98324.06;4959979;28;20031;-61
2021/12/20 04:42:32;;;;;;;9.48;5.38;;;;;;;3.05;81.50;98329.53;4968784;28;20050;-61
2021/12/20 04:44:57;;;;;;;11.35;5.93;;;;;;;2.89;81.75;98314.34;4959710;28;20365;-62
2021/12/20 04:47:23;;;;;;;11.57;6.85;;;;;;;2.76;82.07;98331.50;4954472;28;20077;-61
2021/12/20 04:49:49;;;;;;;8.52;4.60;;;;;;;2.87;82.35;98334.16;4974619;28;20058;-61
2021/12/20 04:52:14;;;;;;;8.73;5.18;;;;;;;2.41;82.91;98270.47;4954068;28;20074;-61
2021/12/20 04:54:39;;;;;;;8.95;5.43;;;;;;;2.76;82.76;98331.50;4960524;28;20038;-60
2021/12/20 04:57:05;;;;;;;9.05;5.60;;;;;;;2.82;82.85;98326.75;4956010;28;20060;-61
2021/12/20 04:59:30;;;;;;;11.07;5.90;;;;;;;2.76;82.06;98319.47;4953560;28;20034;-61
2021/12/20 05:01:56;;;;;;;8.85;5.65;;;;;;;2.63;82.38;98323.78;4960247;28;20041;-61
2021/12/20 05:04:21;;;;;;;9.95;6.05;;;;;;;2.54;83.12;98325.22;4953716;28;20114;-61
2021/12/20 05:06:49;;;;;;;11.02;6.85;;;;;;;2.34;82.95;98326.53;4952377;28;20031;-62
2021/12/20 05:09:14;;;;;;;11.70;6.35;;;;;;;2.23;83.34;98329.78;4951638;28;20046;-61
2021/12/20 05:11:47;;;;;;;10.13;6.25;;;;;;;2.31;83.50;98316.44;4954465;28;20034;-62
2021/12/20 05:14:13;;;;;;;11.90;7.45;;;;;;;2.25;83.55;98330.50;4953220;28;20039;-61
2021/12/20 05:16:38;;;;;;;10.77;6.22;;;;;;;2.07;83.74;98324.81;4969301;28;20046;-64
2021/12/20 05:19:04;;;;;;;7.82;4.97;;;;;;;2.11;84.37;98325.44;4959722;28;20094;-63
2021/12/20 05:21:30;;;;;;;8.65;4.30;;;;;;;2.63;84.23;98319.47;4955438;28;20039;-61
2021/12/20 05:23:55;;;;;;;7.18;4.07;;;;;;;2.90;84.17;98308.25;4959594;28;20722;-62
2021/12/20 05:26:21;;;;;;;8.88;4.45;;;;;;;2.86;82.99;98328.19;4958027;28;20361;-60
2021/12/20 05:28:46;;;;;;;8.38;4.10;;;;;;;2.61;83.84;98264.00;4975279;28;20633;-61
2021/12/20 05:31:12;;;;;;;8.88;4.70;;;;;;;2.68;84.22;98322.56;4975056;28;20035;-63
2021/12/20 05:33:37;;;;;;;7.25;4.57;;;;;;;2.72;84.93;98318.03;4956695;28;20678;-63
2021/12/20 05:36:03;;;;;;;7.28;4.38;;;;;;;2.43;84.83;98277.16;4959975;28;20466;-61
2021/12/20 05:38:28;;;;;;;6.63;4.25;;;;;;;2.17;85.22;98275.47;4959552;28;20022;-61
2021/12/20 05:40:54;;;;;;;7.85;4.13;;;;;;;2.34;85.94;98323.97;4952867;28;20019;-61
2021/12/20 05:43:19;;;;;;;8.80;4.65;;;;;;;2.39;86.27;98333.91;4958382;28;20035;-61
2021/12/20 05:45:45;;;;;;;9.93;4.60;;;;;;;2.44;86.03;98322.41;4974641;28;20034;-61
2021/12/20 05:48:10;;;;;;;8.52;4.55;;;;;;;2.43;85.93;98319.97;4946677;28;20085;-63
2021/12/20 05:50:36;;;;;;;9.27;4.93;;;;;;;2.26;85.53;98328.75;4959509;28;20150;-61
2021/12/20 05:53:01;;;;;;;9.40;5.20;;;;;;;2.24;85.25;98316.00;4976372;28;20039;-62
2021/12/20 05:55:27;;;;;;;9.35;4.63;;;;;;;2.27;85.63;98335.53;4957213;28;20046;-62
2021/12/20 05:57:52;;;;;;;8.43;4.20;;;;;;;1.70;86.27;98281.00;4958327;28;20039;-61
2021/12/20 06:00:20;;;;;;;8.15;4.80;;;;;;;2.23;85.12;98328.97;4975301;28;20046;-61
2021/12/20 06:02:48;;;;;;;7.25;3.97;;;;;;;2.45;85.11;98336.91;4977160;28;20025;-61
2021/12/20 06:05:14;;;;;;;8.80;3.65;;;;;;;2.66;83.91;98331.28;4944531;28;20086;-63
2021/12/20 06:07:42;;;;;;;7.05;3.60;;;;;;;2.54;83.29;98280.75;4957772;28;20026;-63
2021/12/20 06:10:10;;;;;;;6.80;3.70;;;;;;;2.78;83.00;98327.09;4963861;28;20203;-61
2021/12/20 06:12:35;;;;;;;7.40;3.78;;;;;;;2.84;82.30;98330.03;4953251;28;20544;-62
2021/12/20 06:15:04;;;;;;;6.60;3.63;;;;;;;2.85;81.91;98324.00;4944158;28;20151;-62
2021/12/20 06:17:29;;;;;;;7.10;3.45;;;;;;;2.87;81.48;98327.28;4966488;28;20026;-61
2021/12/20 06:19:54;;;;;;;6.25;3.47;;;;;;;2.63;82.36;98290.44;4959217;28;20027;-60
2021/12/20 06:22:20;;;;;;;7.13;3.35;;;;;;;2.89;80.80;98314.34;4974805;28;20593;-61
2021/12/20 06:24:45;;;;;;;6.03;3.45;;;;;;;3.00;80.99;98329.03;4956677;28;20027;-61
2021/12/20 06:27:11;;;;;;;6.25;3.40;;;;;;;2.99;82.14;98330.75;4958342;28;20679;-61
2021/12/20 06:29:36;;;;;;;7.15;3.25;;;;;;;2.61;82.82;98300.78;4962091;28;20042;-62
2021/12/20 06:32:02;;;;;;;7.18;3.80;;;;;;;2.77;86.41;98320.28;4975535;28;20052;-63
2021/12/20 06:34:28;;;;;;;7.53;3.90;;;;;;;2.78;86.08;98324.53;4959105;28;20522;-63
2021/12/20 06:36:54;;;;;;;7.55;3.97;;;;;;;2.78;85.50;98337.34;4956649;28;20055;-60
2021/12/20 06:39:19;;;;;;;6.55;3.70;;;;;;;2.91;82.03;98338.16;4960183;28;20038;-62
2021/12/20 06:41:45;;;;;;;6.68;3.50;;;;;;;3.02;80.92;98338.25;4959215;28;20054;-62
2021/12/20 06:44:10;;;;;;;6.30;3.47;;;;;;;2.70;81.40;98281.34;4977852;28;20022;-60
2021/12/20 06:46:40;;;;;;;6.28;3.38;;;;;;;2.93;82.63;98345.78;4975392;28;20057;-60
2021/12/20 06:49:08;;;;;;;;;;;;;;;2.96;82.37;98343.00;4958228;28;20035;-62
2021/12/20 06:51:38;;;;;;;8.73;3.58;;;;;;;2.86;82.57;98343.59;4959593;28;20373;-61
2021/12/20 06:54:03;;;;;;;8.02;3.80;;;;;;;2.58;82.51;98300.16;4960701;28;20038;-62
2021/12/20 06:56:29;;;;;;;8.43;4.40;;;;;;;2.76;83.23;98345.16;4972213;28;20378;-62
2021/12/20 06:58:54;;;;;;;6.47;3.67;;;;;;;2.72;83.47;98340.31;4959106;28;20035;-61
2021/12/20 07:01:20;;;;;;;7.10;4.07;;;;;;;2.71;84.46;98344.63;4977319;28;20482;-61
2021/12/20 07:03:47;;;;;;;8.63;4.28;;;;;;;2.49;84.35;98343.47;4940764;28;20352;-63
2021/12/20 07:06:12;;;;;;;7.72;4.30;;;;;;;2.22;84.24;98296.53;4954089;28;20035;-61
2021/12/20 07:08:37;;;;;;;7.90;4.30;;;;;;;2.22;84.97;98301.66;4957009;28;20031;-63
2021/12/20 07:11:05;;;;;;;8.60;4.22;;;;;;;2.46;84.80;98338.56;4974929;28;20332;-59
2021/12/20 07:13:31;;;;;;;7.45;3.92;;;;;;;2.32;85.52;98343.75;4958553;28;20026;-61
2021/12/20 07:15:56;;;;;;;6.82;3.88;;;;;;;2.38;86.43;98350.25;4937555;28;20046;-63
2021/12/20 07:18:22;;;;;;;8.10;4.03;;;;;;;2.40;85.81;98343.25;4977608;28;20486;-61
2021/12/20 07:20:47;;;;;;;6.72;3.72;;;;;;;2.23;85.72;98318.72;4953989;28;20023;-60
2021/12/20 07:23:12;;;;;;;7.55;3.97;;;;;;;2.38;85.33;98343.34;4955793;28;20043;-60
2021/12/20 07:25:38;;;;;;;6.85;3.30;;;;;;;2.40;87.16;98338.13;4960225;28;20452;-62
2021/12/20 07:28:03;;;;;;;6.85;3.75;;;;;;;2.38;86.49;98337.41;4969904;28;20041;-63
2021/12/20 07:30:29;;;;;;;6.93;3.60;;;;;;;2.27;86.59;98344.03;4955808;28;20099;-62
2021/12/20 07:32:54;;;;;;;6.03;3.72;;;;;;;2.28;86.37;98339.72;4974469;28;20038;-61
2021/12/20 07:35:22;;;;;;;6.55;3.58;;;;;;;2.20;87.07;98332.53;4970670;28;20105;-60
2021/12/20 07:37:48;;;;;;;8.68;3.53;;;;;;;2.16;86.50;98332.84;4954877;28;20026;-61
2021/12/20 07:40:13;;;;;;;7.60;3.80;;;;;;;2.17;86.73;98334.47;4960830;28;20043;-61
2021/12/20 07:42:40;;;;;;;6.22;3.72;;;;;;;2.24;86.64;98333.97;4958750;28;20023;-62
2021/12/20 07:45:09;;;;;;;7.30;3.60;;;;;;;2.36;86.69;98347.78;4960370;28;20037;-61
2021/12/20 07:47:34;;;;;;;8.20;3.90;;;;;;;2.23;86.27;98347.75;4960894;28;20118;-60
2021/12/20 07:50:00;;;;;;;5.57;3.05;;;;;;;2.26;88.40;98347.56;4957670;28;20041;-62
2021/12/20 07:52:25;;;;;;;5.90;3.10;;;;;;;2.21;88.63;98347.03;4975182;28;20057;-60
2021/12/20 07:54:50;;;;;;;7.25;3.55;;;;;;;2.08;88.55;98335.88;4972630;28;20030;-61
2021/12/20 07:57:16;;;;;;;6.15;3.50;;;;;;;1.90;88.79;98290.00;4964289;28;20035;-61
2021/12/20 07:59:41;;;;;;;7.80;3.50;;;;;;;2.14;88.56;98334.69;4962397;28;20042;-62
2021/12/20 08:02:07;;;;;;;7.45;3.53;;;;;;;2.21;88.17;98343.59;4963053;28;20122;-63
2021/12/20 08:04:33;;;;;;;7.80;3.53;;;;;;;2.28;88.39;98339.72;4974214;28;20041;-61
2021/12/20 08:06:58;;;;;;;8.15;3.65;;;;;;;2.34;88.06;98333.38;4958419;28;20385;-61
2021/12/20 08:09:23;;;;;;;8.48;3.60;;;;;;;2.39;88.15;98339.03;4971102;28;20438;-61
2021/12/20 08:11:49;;;;;;;6.88;3.05;;;;;;;2.37;88.43;98340.88;4954782;28;20389;-61
2021/12/20 08:14:14;;;;;;;7.45;3.70;;;;;;;2.36;87.99;98331.56;4961110;28;20027;-60
2021/12/20 08:16:40;;;;;;;6.82;3.50;;;;;;;2.37;88.74;98340.88;4957962;28;20536;-62
2021/12/20 08:19:05;;;;;;;7.70;3.42;;;;;;;2.39;85.70;98345.00;4959360;28;20042;-60
2021/12/20 08:21:31;;;;;;;7.07;3.58;;;;;;;2.79;85.38;98344.97;4954690;28;20370;-63
2021/12/20 08:23:56;;;;;;;7.03;3.03;;;;;;;2.87;84.85;98337.56;4959277;28;20073;-60
2021/12/20 08:26:22;;;;;;;8.48;2.95;;;;;;;2.86;84.95;98337.66;4984859;28;20501;-61
2021/12/20 08:28:47;;;;;;;6.38;3.22;;;;;;;2.86;84.62;98348.75;4942321;28;20031;-62
2021/12/20 08:31:13;;;;;;;7.35;4.15;;;;;;;2.55;84.11;98287.53;4981340;28;20126;-61
2021/12/20 08:33:38;;;;;;;7.45;3.47;;;;;;;2.99;82.96;98335.88;4970684;28;20066;-63
2021/12/20 08:36:06;;;;;;;7.03;3.30;;;;;;;3.14;82.29;98341.75;4970347;28;20073;-61
2021/12/20 08:38:33;;;;;;;6.15;3.40;;;;;;;3.07;82.06;98337.97;4959669;28;20118;-61
2021/12/20 08:40:59;;;;;;;6.25;3.17;;;;;;;3.22;81.57;98344.63;4955225;28;20035;-61
2021/12/20 08:43:26;;;;;;;5.82;2.80;;;;;;;3.25;81.67;98344.41;4957162;28;20441;-61
2021/12/20 08:45:52;;;;;;;7.03;4.13;;;;;;;3.15;82.06;98340.00;4971079;28;20051;-63
2021/12/20 08:48:17;;;;;;;7.38;2.83;;;;;;;3.17;82.95;98338.97;4973063;28;20498;-58
2021/12/20 08:50:43;;;;;;;7.40;3.13;;;;;;;3.18;82.53;98332.91;4958221;28;20043;-60
2021/12/20 08:53:10;;;;;;;10.85;6.93;;;;;;;3.14;82.19;98330.66;4961299;28;20041;-62
2021/12/20 08:55:37;;;;;;;10.85;6.28;;;;;;;3.10;82.45;98312.03;4959458;28;20042;-61
2021/12/20 08:58:03;;;;;;;6.30;3.38;;;;;;;3.31;82.88;98343.16;4974165;28;20024;-62
2021/12/20 09:00:32;;;;;;;7.38;3.35;;;;;;;3.23;82.10;98327.44;4959374;28;20129;-61
2021/12/20 09:02:58;;;;;;;6.50;3.50;;;;;;;3.16;82.62;98306.50;4951912;28;20470;-61
2021/12/20 09:05:25;;;;;;;6.03;2.80;;;;;;;3.39;82.51;98342.63;4957310;28;20286;-61
2021/12/20 09:07:51;;;;;;;6.55;3.33;;;;;;;3.34;82.75;98345.53;4959400;28;20030;-61
2021/12/20 09:10:17;;;;;;;12.00;4.40;;;;;;;3.33;82.62;98346.47;4960811;28;20041;-61
2021/12/20 09:12:44;;;;;;;6.88;2.80;;;;;;;3.29;80.04;98314.19;4946678;28;20039;-63
2021/12/20 09:15:15;;;;;;;6.00;2.80;;;;;;;3.52;80.49;98358.03;4974692;28;20019;-61
2021/12/20 09:17:44;;;;;;;6.43;2.85;;;;;;;3.41;79.63;98327.94;4958389;28;20035;-63
2021/12/20 09:20:11;;;;;;;7.60;3.85;;;;;;;3.58;79.59;98348.16;4942134;28;20034;-61
2021/12/20 09:22:49;;;;;;;6.93;3.83;;;;;;;3.53;79.69;98324.50;4945707;28;20465;-60
2021/12/20 09:25:14;;;;;;;7.90;5.13;;;;;;;3.33;80.36;98318.19;4975516;28;20456;-61
2021/12/20 09:27:39;;;;;;;8.50;5.57;;;;;;;3.24;80.93;98304.22;4964208;28;20045;-60
2021/12/20 09:30:05;;;;;;;9.18;6.60;;;;;;;3.24;79.76;98303.41;4976942;28;20478;-61
2021/12/20 09:32:31;;;;;;;8.80;5.57;;;;;;;3.59;79.43;98354.09;4977832;28;20077;-60
2021/12/20 09:34:56;;;;;;;7.95;5.30;;;;;;;3.61;79.01;98349.69;4976895;28;20039;-61
2021/12/20 09:37:23;;;;;;;9.77;5.20;;;;;;;3.58;79.18;98350.72;4942364;28;20056;-60
2021/12/20 09:39:53;;;;;;;9.85;5.22;;;;;;;3.53;79.05;98346.84;4959214;28;20023;-61
2021/12/20 09:42:18;;;;;;;;;;;;;;;3.56;79.63;98355.16;4963037;28;20031;-61
2021/12/20 09:44:44;;;;;;;9.68;5.45;;;;;;;3.23;79.67;98301.75;4989089;28;19925;-62
2021/12/20 09:47:09;;;;;;;11.45;5.40;;;;;;;3.24;80.15;98298.25;4972028;28;20027;-61
2021/12/20 09:49:35;;;;;;;11.35;4.93;;;;;;;3.43;80.46;98331.22;4972802;28;20034;-61
2021/12/20 09:52:01;;;;;;;8.95;4.30;;;;;;;3.24;80.52;98296.50;4976588;28;20041;-61
2021/12/20 09:54:29;;;;;;;8.15;4.55;;;;;;;3.16;80.96;98295.38;4978149;28;20015;-60
2021/12/20 09:56:57;;;;;;;10.20;5.18;;;;;;;3.62;82.17;98351.34;4975100;28;20041;-62
2021/12/20 09:59:24;;;;;;;8.40;4.22;;;;;;;3.71;82.44;98345.53;4939594;28;20577;-62
2021/12/20 10:01:51;;;;;;;7.80;4.72;;;;;;;3.93;81.52;98349.19;4961206;28;20500;-63
2021/12/20 10:04:17;;;;;;;6.88;4.15;;;;;;;3.98;81.84;98344.50;4960585;28;20137;-61
2021/12/20 10:06:42;;;;;;;8.00;4.32;;;;;;;4.13;80.70;98345.19;4978872;28;20523;-63
2021/12/20 10:09:14;;;;;;;8.57;4.40;;;;;;;4.11;80.40;98334.19;4986445;28;20031;-60
2021/12/20 10:11:40;;;;;;;9.55;5.13;;;;;;;4.20;80.35;98331.75;4958352;28;20031;-61
2021/12/20 10:14:09;;;;;;;8.27;5.10;;;;;;;4.35;78.24;98332.38;4961893;28;20381;-60
2021/12/20 10:16:35;;;;;;;8.25;3.67;;;;;;;4.55;76.25;98324.97;4959306;28;20041;-60
2021/12/20 10:19:04;;;;;;;10.05;3.45;;;;;;;4.41;75.72;98277.88;4953163;28;20034;-60
2021/12/20 10:21:34;;;;;;;9.75;3.97;;;;;;;4.82;76.46;98322.91;4943189;28;20434;-61
2021/12/20 10:24:00;;;;;;;10.30;4.43;;;;;;;4.82;77.54;98315.16;4976898;28;20027;-62
2021/12/20 10:26:25;;;;;;;8.55;5.22;;;;;;;4.78;77.75;98316.34;4978249;28;20038;-61
2021/12/20 10:28:53;;;;;;;8.50;4.07;;;;;;;4.79;77.31;98312.81;4957069;28;20736;-60
2021/12/20 10:31:21;;;;;;;7.93;4.10;;;;;;;4.96;79.28;98310.72;4962758;28;20093;-63
2021/12/20 10:33:59;;;;;;;9.10;4.22;;;;;;;5.19;78.31;98319.28;4957086;28;20354;-60
2021/12/20 10:36:25;;;;;;;8.00;3.78;;;;;;;5.22;77.95;98310.47;4962079;28;20114;-62
2021/12/20 10:39:00;;;;;;;8.15;3.85;;;;;;;5.13;77.98;98296.53;4961280;28;20023;-61
2021/12/20 10:41:36;;;;;;;7.05;3.45;;;;;;;4.90;75.83;98255.31;4969620;28;20085;-63
2021/12/20 10:44:14;;;;;;;7.25;3.40;;;;;;;5.34;74.14;98304.38;4970998;28;20049;-63
2021/12/20 10:46:54;;;;;;;8.40;3.17;;;;;;;5.42;73.74;98298.63;4972993;28;20353;-60
2021/12/20 10:49:25;;;;;;;;;;;;;;;5.43;72.50;98303.66;4961290;28;20027;-63
2021/12/20 10:51:51;;;;;;;8.52;3.38;;;;;;;5.27;74.21;98259.41;4941938;28;20820;-62
2021/12/20 10:54:21;;;;;;;22.88;3.65;;;;;;;5.32;74.02;98304.50;4964300;28;20037;-61
2021/12/20 10:56:53;;;;;;;8.30;2.75;;;;;;;5.52;68.58;98299.56;4956480;28;20027;-61
2021/12/20 10:59:23;;;;;;;8.90;3.45;;;;;;;5.58;70.31;98305.06;4933794;28;20031;-61
2021/12/20 11:04:41;;;;;;;9.40;3.10;;;;;;;5.49;70.07;98308.34;4971752;28;20516;-60
2021/12/20 11:09:44;;;;;;;12.02;3.10;;;;;;;5.42;68.48;98289.16;4959065;28;20074;-61
2021/12/20 11:12:20;;;;;;;8.13;3.35;;;;;;;5.49;68.39;98303.19;4957484;28;20703;-60
2021/12/20 11:14:50;;;;;;;11.73;2.80;;;;;;;5.83;64.70;98253.28;4954358;28;20030;-60
2021/12/20 11:17:18;;;;;;;7.63;3.10;;;;;;;6.10;63.45;98253.66;4957272;28;20693;-62
2021/12/20 11:19:45;;;;;;;16.02;3.63;;;;;;;6.55;61.13;98301.63;4957185;28;20115;-62
2021/12/20 11:22:20;;;;;;;7.88;2.60;;;;;;;6.49;60.42;98299.56;4951205;28;20129;-60
2021/12/20 11:24:52;;;;;;;7.53;2.72;;;;;;;6.51;62.33;98298.47;4940950;28;20383;-61
2021/12/20 11:27:32;;;;;;;7.68;2.45;;;;;;;6.48;63.57;98280.69;4945107;28;20335;-63
2021/12/20 11:30:02;;;;;;;8.02;2.50;;;;;;;6.45;63.79;98278.34;4957845;28;20033;-63
2021/12/20 11:32:28;;;;;;;8.02;2.53;;;;;;;6.63;64.43;98294.09;4977220;28;20068;-63
2021/12/20 11:34:54;;;;;;;9.48;2.90;;;;;;;6.56;67.11;98285.19;4975540;28;20671;-61
2021/12/20 11:37:22;;;;;;;6.85;2.65;;;;;;;6.33;66.54;98259.53;4956584;28;20134;-61
2021/12/20 11:39:48;;;;;;;8.43;3.05;;;;;;;6.65;68.23;98297.34;4956139;28;20022;-62
2021/12/20 11:42:14;;;;;;;6.47;3.10;;;;;;;6.66;68.08;98283.50;4960320;28;20085;-62
2021/12/20 11:44:41;;;;;;;5.28;2.78;;;;;;;6.38;67.48;98240.25;4959703;28;20022;-61
2021/12/20 11:47:08;;;;;;;7.20;3.00;;;;;;;6.49;68.51;98281.47;4967842;28;20038;-61
2021/12/20 11:49:36;;;;;;;9.57;2.67;;;;;;;6.20;69.45;98250.31;4960305;28;20113;-61
2021/12/20 11:52:18;;;;;;;8.48;3.42;;;;;;;6.28;69.09;98284.06;4971681;28;20037;-62